Time;durP1;ratioP1;P1;durP2;ratioP2;P2;SDS_P1;SDS_P2;PMS_P1;PMS_P2;Temp;Humidity;BMP_temperature;BMP_pressure;BME280_temperature;BME280_humidity;BME280_pressure;Samples;Min_cycle;Max_cycle;Signal;HPM_P1;HPM_P2
2022/09/04 00:00:27;;;;;;;12.30;5.73;;;17.30;44.10;;;;;;5049160;28;20438;-72
2022/09/04 00:03:19;;;;;;;10.27;6.10;;;17.20;44.00;;;;;;5043908;28;20439;-72
2022/09/04 00:05:51;;;;;;;10.60;5.17;;;17.20;44.00;;;;;;5049796;28;20443;-73
2022/09/04 00:08:28;;;;;;;10.60;5.57;;;17.20;44.00;;;;;;5050562;28;20460;-72
2022/09/04 00:11:19;;;;;;;7.90;5.60;;;17.10;44.10;;;;;;5051663;28;20399;-72
2022/09/04 00:13:57;;;;;;;6.40;5.40;;;17.10;44.10;;;;;;5048333;28;20427;-72
2022/09/04 00:16:29;;;;;;;7.87;5.63;;;17.10;43.90;;;;;;5052012;28;20478;-72
2022/09/04 00:19:32;;;;;;;7.90;5.33;;;17.10;44.00;;;;;;5048616;28;20486;-72
2022/09/04 00:22:00;;;;;;;7.13;6.00;;;17.10;44.00;;;;;;5041952;28;20557;-73
2022/09/04 00:24:38;;;;;;;6.73;5.63;;;17.00;43.90;;;;;;5042423;28;20432;-72
2022/09/04 00:27:09;;;;;;;10.10;6.20;;;17.00;43.90;;;;;;5042174;28;20431;-72
2022/09/04 00:29:43;;;;;;;10.40;5.60;;;17.00;43.80;;;;;;5047642;28;20502;-72
2022/09/04 00:32:18;;;;;;;16.13;6.20;;;17.00;43.90;;;;;;5046615;28;21015;-73
2022/09/04 00:35:09;;;;;;;7.43;5.23;;;16.90;43.80;;;;;;5049386;28;20810;-72
2022/09/04 00:37:47;;;;;;;8.20;5.40;;;17.00;43.90;;;;;;5055610;28;20543;-72
2022/09/04 00:40:42;;;;;;;9.23;6.37;;;16.90;43.90;;;;;;5045831;28;20800;-72
2022/09/04 00:43:19;;;;;;;6.93;5.47;;;16.90;43.80;;;;;;5048929;28;20427;-72
2022/09/04 00:45:57;;;;;;;6.53;5.53;;;17.00;48.10;;;;;;5051235;28;20439;-73
2022/09/04 00:48:48;;;;;;;8.30;5.80;;;16.90;43.90;;;;;;5057138;28;20431;-72
2022/09/04 00:51:20;;;;;;;8.30;6.23;;;16.90;43.70;;;;;;5058747;28;20693;-72
2022/09/04 00:54:00;;;;;;;9.67;6.13;;;16.90;43.80;;;;;;5047157;28;20423;-72
2022/09/04 00:56:40;;;;;;;8.63;6.07;;;16.90;45.20;;;;;;5051970;28;20448;-74
2022/09/04 00:59:37;;;;;;;9.23;6.30;;;16.90;43.80;;;;;;5045534;28;20462;-72
2022/09/04 01:02:30;;;;;;;8.07;5.13;;;16.80;43.70;;;;;;5038877;28;20902;-75
2022/09/04 01:05:12;;;;;;;8.13;5.43;;;16.70;43.60;;;;;;5051115;28;20503;-72
2022/09/04 01:08:15;;;;;;;8.63;5.50;;;16.70;43.60;;;;;;5049207;28;20509;-72
2022/09/04 01:10:48;;;;;;;6.93;5.63;;;16.60;43.50;;;;;;5045698;28;20424;-73
2022/09/04 01:13:34;;;;;;;8.47;5.70;;;16.50;43.50;;;;;;5036320;28;20427;-73
2022/09/04 01:16:13;;;;;;;9.23;5.70;;;16.50;43.60;;;;;;5046960;28;20529;-72
2022/09/04 01:18:49;;;;;;;8.33;5.90;;;16.50;47.10;;;;;;5054542;28;20424;-73
2022/09/04 01:21:49;;;;;;;6.67;5.47;;;16.50;51.80;;;;;;5051224;28;20407;-72
2022/09/04 01:24:40;;;;;;;8.90;5.90;;;16.50;53.40;;;;;;5045454;28;20432;-72
2022/09/04 01:27:24;;;;;;;11.10;6.50;;;16.50;49.10;;;;;;5043575;28;20454;-72
2022/09/04 01:30:06;;;;;;;7.87;5.90;;;16.50;53.70;;;;;;5051034;28;20411;-74
2022/09/04 01:32:58;;;;;;;8.00;5.50;;;16.50;52.40;;;;;;5048672;28;21052;-72
2022/09/04 01:35:58;;;;;;;9.37;6.00;;;16.60;43.60;;;;;;5035475;28;20530;-73
2022/09/04 01:38:36;;;;;;;7.93;5.57;;;16.50;43.50;;;;;;5045502;28;20914;-73
2022/09/04 01:41:43;;;;;;;9.47;6.10;;;16.50;43.50;;;;;;5046375;28;20435;-72
2022/09/04 01:44:10;;;;;;;9.20;6.30;;;16.50;48.90;;;;;;4998459;28;20711;-73
2022/09/04 01:46:52;;;;;;;10.40;6.20;;;16.50;51.20;;;;;;5004184;28;20952;-72
2022/09/04 01:49:35;;;;;;;9.13;5.90;;;16.40;56.20;;;;;;5033772;28;20412;-72
2022/09/04 01:52:57;;;;;;;8.43;5.70;;;16.50;52.80;;;;;;5039908;28;20412;-71
2022/09/04 01:55:46;;;;;;;8.57;5.67;;;16.50;49.90;;;;;;5026529;28;20986;-72
2022/09/04 01:58:28;;;;;;;8.30;6.53;;;16.50;43.50;;;;;;5034372;28;20556;-72
2022/09/04 02:01:02;;;;;;;6.10;5.30;;;16.50;43.40;;;;;;5040624;28;20436;-72
2022/09/04 02:04:01;;;;;;;9.70;6.60;;;16.50;43.50;;;;;;5048439;28;20411;-73
2022/09/04 02:06:32;;;;;;;9.00;5.53;;;16.50;45.30;;;;;;5036002;28;20424;-73
2022/09/04 02:09:28;;;;;;;11.00;5.80;;;16.50;43.50;;;;;;5048165;28;20458;-72
2022/09/04 02:12:21;;;;;;;10.07;5.80;;;16.50;43.50;;;;;;5042573;28;20451;-72
2022/09/04 02:15:14;;;;;;;10.70;7.03;;;16.40;43.40;;;;;;5053087;28;20533;-73
2022/09/04 02:18:11;;;;;;;9.90;7.10;;;16.40;43.40;;;;;;5047147;28;20818;-72
2022/09/04 02:20:43;;;;;;;10.77;6.10;;;16.40;50.00;;;;;;5034218;28;20428;-74
2022/09/04 02:23:19;;;;;;;10.90;6.20;;;16.40;50.30;;;;;;5043998;28;20428;-72
2022/09/04 02:26:13;;;;;;;10.80;5.70;;;16.30;43.70;;;;;;5045878;28;20459;-73
2022/09/04 02:29:05;;;;;;;7.37;5.37;;;16.30;43.50;;;;;;5048156;28;20471;-74
2022/09/04 02:31:55;;;;;;;20.90;6.17;;;16.30;43.20;;;;;;5043133;28;20419;-72
2022/09/04 02:34:37;;;;;;;6.70;5.80;;;16.20;43.20;;;;;;5042932;28;20427;-72
2022/09/04 02:37:41;;;;;;;8.07;5.40;;;16.20;44.20;;;;;;5043537;28;20470;-72
2022/09/04 02:40:34;;;;;;;10.50;5.57;;;16.20;48.50;;;;;;5041381;28;20427;-73
2022/09/04 02:43:31;;;;;;;6.77;5.20;;;16.20;43.10;;;;;;5048312;28;20442;-72
2022/09/04 02:46:42;;;;;;;7.13;5.87;;;16.20;43.10;;;;;;5049355;28;20573;-73
2022/09/04 02:49:12;;;;;;;10.57;6.27;;;16.20;43.30;;;;;;5035926;28;20492;-72
2022/09/04 02:52:11;;;;;;;10.13;5.63;;;16.20;43.90;;;;;;5049980;28;20403;-72
2022/09/04 02:54:51;;;;;;;8.93;5.60;;;16.20;43.30;;;;;;5045709;28;20455;-73
2022/09/04 02:57:41;;;;;;;8.17;5.80;;;16.10;43.10;;;;;;5047106;28;20553;-73
2022/09/04 03:00:18;;;;;;;8.53;5.67;;;16.10;43.10;;;;;;5037068;28;20408;-73
2022/09/04 03:02:50;;;;;;;7.23;5.77;;;16.00;43.00;;;;;;5032844;28;20467;-73
2022/09/04 03:05:28;;;;;;;7.77;5.63;;;15.90;43.00;;;;;;5048516;28;20527;-73
2022/09/04 03:08:15;;;;;;;7.40;5.73;;;15.90;43.20;;;;;;5045331;28;20440;-73
2022/09/04 03:11:11;;;;;;;9.60;5.90;;;15.90;45.10;;;;;;5049391;28;20533;-72
2022/09/04 03:13:50;;;;;;;10.73;6.87;;;15.90;55.10;;;;;;5043588;28;20435;-72
2022/09/04 03:16:44;;;;;;;9.00;5.77;;;15.90;62.00;;;;;;5047482;28;20892;-73
2022/09/04 03:19:23;;;;;;;11.33;6.60;;;15.90;58.70;;;;;;5042179;28;20801;-72
2022/09/04 03:21:54;;;;;;;15.30;7.30;;;15.90;57.00;;;;;;5046487;28;20988;-73
2022/09/04 03:24:58;;;;;;;12.20;6.40;;;15.90;56.10;;;;;;5043464;28;20435;-73
2022/09/04 03:27:26;;;;;;;18.90;7.10;;;15.90;54.30;;;;;;5035852;28;20619;-72
2022/09/04 03:30:02;;;;;;;9.30;7.20;;;15.80;60.70;;;;;;5047729;28;20507;-73
2022/09/04 03:33:03;;;;;;;10.30;7.80;;;15.80;66.50;;;;;;5046394;28;20420;-73
2022/09/04 03:35:43;;;;;;;8.70;7.00;;;15.80;68.70;;;;;;5045493;28;20428;-74
2022/09/04 03:38:48;;;;;;;17.43;6.90;;;15.90;67.90;;;;;;5048151;28;20808;-72
2022/09/04 03:41:16;;;;;;;8.30;6.90;;;15.90;63.00;;;;;;5029486;28;20477;-73
2022/09/04 03:44:02;;;;;;;12.50;7.47;;;16.00;61.90;;;;;;5043433;28;20511;-72
2022/09/04 03:46:54;;;;;;;10.07;6.43;;;15.90;59.90;;;;;;5048743;28;20945;-72
2022/09/04 03:49:33;;;;;;;9.10;6.37;;;15.90;60.20;;;;;;5043559;28;20418;-72
2022/09/04 03:52:07;;;;;;;9.27;6.10;;;16.00;61.10;;;;;;5046946;28;20451;-72
2022/09/04 03:54:42;;;;;;;10.10;6.77;;;15.90;58.60;;;;;;5045465;28;20485;-73
2022/09/04 03:57:58;;;;;;;12.23;6.70;;;15.90;59.40;;;;;;5036517;28;20454;-72
2022/09/04 04:00:24;;;;;;;11.47;6.20;;;15.90;61.80;;;;;;5031858;28;20953;-73
2022/09/04 04:03:17;;;;;;;8.47;6.50;;;15.90;61.30;;;;;;5048491;28;20399;-72
2022/09/04 04:05:53;;;;;;;9.83;6.73;;;15.90;58.00;;;;;;5032894;28;20532;-74
2022/09/04 04:08:35;;;;;;;8.93;6.40;;;15.90;58.90;;;;;;5037988;28;20415;-73
2022/09/04 04:11:26;;;;;;;7.90;6.23;;;15.90;62.10;;;;;;5036837;28;20420;-74
2022/09/04 04:14:20;;;;;;;11.13;6.30;;;15.90;62.10;;;;;;5048822;28;20455;-72
2022/09/04 04:16:52;;;;;;;13.30;6.40;;;15.90;61.80;;;;;;5056512;28;20475;-73
2022/09/04 04:19:51;;;;;;;9.30;6.57;;;16.00;59.40;;;;;;5051350;28;20419;-72
2022/09/04 04:22:51;;;;;;;8.37;6.50;;;16.00;59.80;;;;;;5045730;28;20441;-72
2022/09/04 04:25:55;;;;;;;10.80;7.30;;;16.00;58.10;;;;;;5040143;28;20451;-73
2022/09/04 04:28:55;;;;;;;11.90;7.00;;;16.00;58.90;;;;;;5047006;28;20497;-73
2022/09/04 04:31:33;;;;;;;16.63;7.53;;;16.00;57.90;;;;;;5041596;28;20990;-75
2022/09/04 04:34:26;;;;;;;10.33;7.10;;;16.00;64.00;;;;;;5049672;28;20892;-73
2022/09/04 04:37:12;;;;;;;7.60;6.80;;;16.00;62.50;;;;;;5042806;28;20551;-72
2022/09/04 04:39:47;;;;;;;7.77;6.43;;;16.00;58.70;;;;;;5051979;28;20404;-73
2022/09/04 04:42:39;;;;;;;8.20;6.90;;;16.10;67.10;;;;;;5046769;28;20956;-72
2022/09/04 04:48:38;;;;;;;9.33;7.07;;;16.10;61.40;;;;;;5071592;28;20426;-74
2022/09/04 04:51:40;;;;;;;11.87;7.50;;;16.10;59.20;;;;;;5047924;28;20782;-73
2022/09/04 04:54:33;;;;;;;9.20;6.70;;;16.10;58.40;;;;;;5045512;28;20455;-72
2022/09/04 04:57:38;;;;;;;9.63;6.70;;;16.10;57.00;;;;;;5048082;28;20517;-72
2022/09/04 05:00:32;;;;;;;10.70;7.13;;;16.10;56.40;;;;;;5032303;28;20404;-72
2022/09/04 05:03:15;;;;;;;10.67;7.10;;;16.00;56.20;;;;;;5047208;28;20488;-72
2022/09/04 05:06:08;;;;;;;11.93;7.87;;;16.00;56.30;;;;;;5049173;28;20448;-72
2022/09/04 05:08:49;;;;;;;9.33;7.40;;;16.10;57.80;;;;;;5045484;28;20439;-73
2022/09/04 05:11:53;;;;;;;14.03;6.77;;;16.00;60.80;;;;;;5045888;28;20404;-73
2022/09/04 05:14:25;;;;;;;7.60;6.43;;;16.10;58.40;;;;;;5048353;28;20447;-72
2022/09/04 05:17:33;;;;;;;10.57;6.93;;;16.10;54.50;;;;;;5040371;28;20494;-74
2022/09/04 05:20:26;;;;;;;8.23;7.10;;;16.20;56.30;;;;;;5046999;28;20948;-72
2022/09/04 05:23:01;;;;;;;10.83;6.20;;;16.20;52.10;;;;;;5050283;28;20412;-72
2022/09/04 05:25:51;;;;;;;7.80;6.30;;;16.20;48.00;;;;;;5049179;28;20967;-72
2022/09/04 05:28:34;;;;;;;9.30;6.13;;;16.30;43.30;;;;;;5045725;28;20443;-71
2022/09/04 05:31:23;;;;;;;7.67;6.40;;;16.40;43.40;;;;;;5046539;28;20438;-72
2022/09/04 05:34:19;;;;;;;10.70;6.30;;;16.50;43.50;;;;;;5049240;28;20432;-72
2022/09/04 05:37:23;;;;;;;9.83;7.53;;;16.60;44.50;;;;;;5040712;28;20470;-72
2022/09/04 05:39:58;;;;;;;12.23;8.10;;;16.70;43.60;;;;;;5049432;28;20422;-72
2022/09/04 05:42:58;;;;;;;10.13;7.97;;;16.80;52.80;;;;;;5048686;28;20435;-71
2022/09/04 05:45:43;;;;;;;12.20;9.43;;;17.00;44.20;;;;;;5049629;28;20456;-72
2022/09/04 05:48:20;;;;;;;16.33;9.23;;;17.20;50.90;;;;;;5043382;28;20458;-72
2022/09/04 05:51:04;;;;;;;16.13;9.53;;;17.30;49.50;;;;;;5048999;28;20953;-73
2022/09/04 05:53:53;;;;;;;14.90;9.80;;;17.50;52.20;;;;;;5046108;28;20424;-72
2022/09/04 05:56:49;;;;;;;18.90;11.10;;;17.40;44.20;;;;;;5042297;28;20451;-75
2022/09/04 05:59:50;;;;;;;17.00;11.50;;;17.80;44.70;;;;;;5042033;28;20424;-72
2022/09/04 06:02:51;;;;;;;15.40;11.13;;;18.00;44.70;;;;;;5044070;28;20407;-72
2022/09/04 06:05:28;;;;;;;16.23;11.47;;;18.10;44.80;;;;;;5043070;28;20458;-72
2022/09/04 06:08:24;;;;;;;20.13;12.67;;;18.20;45.00;;;;;;5046391;28;20431;-73
2022/09/04 06:11:08;;;;;;;16.60;11.77;;;18.30;44.90;;;;;;5050350;28;20481;-73
2022/09/04 06:13:49;;;;;;;17.60;12.30;;;18.40;45.00;;;;;;5047594;28;20431;-73
2022/09/04 06:16:28;;;;;;;23.83;12.80;;;18.40;45.10;;;;;;5043127;28;20446;-72
2022/09/04 06:19:12;;;;;;;21.67;11.80;;;18.40;45.10;;;;;;5040331;28;20450;-73
2022/09/04 06:22:15;;;;;;;15.67;11.03;;;18.50;45.10;;;;;;5047189;28;20510;-73
2022/09/04 06:25:13;;;;;;;14.90;10.43;;;18.80;45.40;;;;;;5047540;28;20512;-72
2022/09/04 06:27:44;;;;;;;16.43;11.67;;;18.80;45.30;;;;;;5041464;28;20657;-72
2022/09/04 06:30:13;;;;;;;15.10;10.30;;;18.90;45.40;;;;;;5047323;28;20860;-73
2022/09/04 06:32:52;;;;;;;13.43;9.63;;;18.90;45.40;;;;;;5046682;28;20469;-73
2022/09/04 06:35:58;;;;;;;13.73;9.37;;;18.90;45.40;;;;;;5034055;28;20435;-73
2022/09/04 06:38:26;;;;;;;15.27;10.40;;;19.10;37.00;;;;;;5049275;28;20555;-73
2022/09/04 06:41:14;;;;;;;15.00;9.53;;;19.40;32.80;;;;;;5050242;28;20400;-71
2022/09/04 06:43:58;;;;;;;18.03;10.00;;;19.50;27.60;;;;;;5049874;28;20392;-72
2022/09/04 06:46:42;;;;;;;17.70;9.87;;;19.70;25.30;;;;;;5061148;28;20412;-74
2022/09/04 06:49:34;;;;;;;16.37;10.53;;;19.60;25.70;;;;;;5048979;28;20419;-72
2022/09/04 06:52:22;;;;;;;19.63;11.73;;;19.60;28.80;;;;;;5040649;28;20480;-77
2022/09/04 06:54:59;;;;;;;21.40;11.60;;;19.60;27.60;;;;;;5039161;28;20515;-75
2022/09/04 06:58:02;;;;;;;22.00;11.63;;;19.70;24.40;;;;;;5043599;28;20197;-76
2022/09/04 07:00:35;;;;;;;16.00;9.60;;;19.90;22.20;;;;;;5044289;28;20439;-75
2022/09/04 07:03:12;;;;;;;18.10;10.90;;;20.10;20.40;;;;;;5043405;28;20510;-77
2022/09/04 07:05:57;;;;;;;16.20;10.03;;;20.30;13.00;;;;;;5049277;28;20423;-76
2022/09/04 07:08:48;;;;;;;13.30;9.43;;;20.50;10.50;;;;;;5041032;28;20909;-77
2022/09/04 07:11:16;;;;;;;15.63;10.37;;;21.20;1.00;;;;;;5041649;28;20420;-76
2022/09/04 07:14:33;;;;;;;17.67;10.87;;;21.70;1.00;;;;;;5035732;28;20845;-76
2022/09/04 07:17:39;;;;;;;15.10;9.50;;;21.50;1.00;;;;;;5015534;28;20513;-75
2022/09/04 07:20:29;;;;;;;14.17;9.60;;;21.30;1.00;;;;;;5042576;28;20411;-75
2022/09/04 07:23:15;;;;;;;13.97;9.23;;;21.30;1.00;;;;;;5040816;28;20459;-75
2022/09/04 07:26:05;;;;;;;16.43;9.50;;;21.50;1.00;;;;;;5043661;28;20460;-76
2022/09/04 07:28:52;;;;;;;14.07;9.33;;;21.90;1.00;;;;;;5039951;28;20526;-75
2022/09/04 07:31:42;;;;;;;17.70;10.70;;;22.60;1.00;;;;;;5042689;28;20423;-76
2022/09/04 07:34:32;;;;;;;14.17;10.50;;;23.80;1.00;;;;;;5028840;28;20491;-76
2022/09/04 07:37:26;;;;;;;16.80;9.10;;;24.70;1.00;;;;;;5042448;28;20456;-73
2022/09/04 07:40:14;;;;;;;14.80;10.13;;;25.80;1.00;;;;;;5044568;28;20426;-72
2022/09/04 07:43:02;;;;;;;12.20;9.50;;;26.40;1.00;;;;;;5052776;28;20426;-73
2022/09/04 07:45:50;;;;;;;13.80;9.50;;;27.00;1.00;;;;;;5050256;28;20980;-73
2022/09/04 07:48:24;;;;;;;11.17;8.60;;;27.70;1.00;;;;;;5047203;28;20431;-75
2022/09/04 07:51:15;;;;;;;11.17;8.57;;;28.40;1.00;;;;;;5043860;28;20176;-75
2022/09/04 07:54:07;;;;;;;10.38;8.45;;;28.90;1.00;;;;;;5045383;28;20528;-73
2022/09/04 07:56:56;;;;;;;11.20;7.78;;;29.50;1.00;;;;;;5041505;28;20188;-76
2022/09/04 07:59:48;;;;;;;8.98;7.57;;;30.30;1.00;;;;;;5042693;28;20181;-74
2022/09/04 08:02:28;;;;;;;10.27;7.78;;;29.80;1.00;;;;;;5044958;28;20590;-75
2022/09/04 08:05:23;;;;;;;8.32;7.13;;;29.90;1.00;;;;;;5052609;28;20192;-75
2022/09/04 08:08:02;;;;;;;9.30;7.55;;;29.70;1.00;;;;;;5051976;28;20208;-76
2022/09/04 08:10:59;;;;;;;8.55;7.35;;;29.20;1.00;;;;;;5041606;28;20176;-75
2022/09/04 08:14:00;;;;;;;8.98;6.80;;;28.80;1.00;;;;;;5033841;28;20808;-75
2022/09/04 08:16:55;;;;;;;7.47;6.50;;;29.50;1.00;;;;;;5056801;28;20179;-76
2022/09/04 08:19:49;;;;;;;10.43;6.57;;;30.50;1.00;;;;;;5051935;28;20191;-75
2022/09/04 08:22:40;;;;;;;7.25;6.20;;;30.90;1.00;;;;;;5053147;28;20187;-75
2022/09/04 08:25:58;;;;;;;8.32;6.32;;;31.60;1.00;;;;;;5033576;28;20193;-74
2022/09/04 08:28:44;;;;;;;10.02;7.07;;;31.90;1.00;;;;;;5016946;28;20607;-76
2022/09/04 08:31:31;;;;;;;8.27;7.32;;;31.90;1.00;;;;;;5033364;28;20161;-74
2022/09/04 08:34:19;;;;;;;9.68;6.57;;;32.30;1.00;;;;;;5031618;28;20977;-74
2022/09/04 08:37:11;;;;;;;12.82;6.57;;;32.70;1.00;;;;;;5033187;28;20208;-74
2022/09/04 08:40:11;;;;;;;10.05;6.82;;;32.60;1.00;;;;;;5042369;28;20173;-76
2022/09/04 08:43:02;;;;;;;8.63;6.07;;;33.00;1.00;;;;;;5052930;28;20570;-75
2022/09/04 08:46:13;;;;;;;13.75;5.90;;;33.50;1.00;;;;;;5060621;28;20551;-75
2022/09/04 08:48:50;;;;;;;6.43;5.72;;;33.60;1.00;;;;;;5032039;28;20170;-75
2022/09/04 08:52:05;;;;;;;7.57;5.63;;;34.00;1.00;;;;;;5038184;28;20176;-74
2022/09/04 08:54:53;;;;;;;7.68;5.15;;;33.80;1.00;;;;;;5030584;28;20571;-75
2022/09/04 08:57:31;;;;;;;6.22;5.13;;;34.50;1.00;;;;;;5051503;28;20204;-74
2022/09/04 09:00:28;;;;;;;6.78;5.20;;;35.00;1.00;;;;;;5051744;28;20168;-75
2022/09/04 09:03:40;;;;;;;10.30;5.60;;;35.10;1.00;;;;;;5031033;28;20711;-75
2022/09/04 09:06:25;;;;;;;7.55;4.80;;;35.40;1.00;;;;;;5039013;28;20671;-75
2022/09/04 09:09:38;;;;;;;7.15;5.28;;;35.40;1.00;;;;;;5051491;28;20176;-75
2022/09/04 09:12:25;;;;;;;6.45;5.00;;;35.00;1.00;;;;;;5050772;28;20600;-75
2022/09/04 09:15:28;;;;;;;5.22;4.57;;;34.20;1.00;;;;;;5045646;28;20231;-75
2022/09/04 09:18:22;;;;;;;6.38;4.63;;;33.60;1.00;;;;;;5051122;28;20244;-74
2022/09/04 09:20:53;;;;;;;5.53;4.72;;;32.20;1.00;;;;;;5045366;28;20188;-74
2022/09/04 09:23:40;;;;;;;6.55;5.30;;;32.90;1.00;;;;;;5052659;28;20172;-75
2022/09/04 09:26:25;;;;;;;7.28;4.93;;;33.80;1.00;;;;;;5051013;28;20215;-74
2022/09/04 09:29:03;;;;;;;8.77;5.53;;;34.10;1.00;;;;;;5039280;28;20690;-74
2022/09/04 09:31:50;;;;;;;4.95;4.45;;;34.60;1.00;;;;;;5030472;28;20212;-74
2022/09/04 09:34:52;;;;;;;6.20;4.22;;;36.40;1.00;;;;;;5031679;28;20176;-75
2022/09/04 09:37:38;;;;;;;11.98;3.90;;;36.50;1.00;;;;;;5032083;28;20279;-75
2022/09/04 09:40:09;;;;;;;5.35;3.72;;;37.10;1.00;;;;;;5034060;28;20183;-74
2022/09/04 09:43:03;;;;;;;4.50;3.70;;;37.00;1.00;;;;;;5035241;28;20674;-76
2022/09/04 09:45:53;;;;;;;4.10;3.17;;;37.20;1.00;;;;;;5047513;28;20202;-76
2022/09/04 09:48:51;;;;;;;4.43;3.60;;;36.90;1.00;;;;;;5032000;28;20869;-78
2022/09/04 09:51:56;;;;;;;4.38;3.15;;;36.90;1.00;;;;;;5024387;28;20695;-74
2022/09/04 09:54:58;;;;;;;4.88;2.90;;;37.70;1.00;;;;;;5020677;28;20471;-75
2022/09/04 09:58:01;;;;;;;5.57;3.25;;;37.80;1.00;;;;;;5035224;28;20204;-75
2022/09/04 10:00:57;;;;;;;4.88;3.13;;;36.30;1.00;;;;;;5033370;28;20188;-75
2022/09/04 10:03:48;;;;;;;4.80;4.10;;;34.10;1.00;;;;;;5034901;28;20278;-74
2022/09/04 10:06:51;;;;;;;4.72;3.50;;;32.70;1.00;;;;;;5050279;28;20211;-73
2022/09/04 10:09:38;;;;;;;5.60;3.58;;;31.70;1.00;;;;;;5042767;28;20184;-74
2022/09/04 10:12:31;;;;;;;7.38;3.95;;;31.30;1.00;;;;;;5046179;28;20262;-74
2022/09/04 10:15:41;;;;;;;4.90;3.72;;;31.20;1.00;;;;;;5055076;28;20260;-74
2022/09/04 10:18:52;;;;;;;5.07;3.40;;;32.10;1.00;;;;;;5038898;28;20223;-74
2022/09/04 10:21:46;;;;;;;4.78;3.15;;;33.50;1.00;;;;;;5043457;28;20202;-74
2022/09/04 10:24:43;;;;;;;5.40;3.10;;;36.00;1.00;;;;;;5040798;28;20563;-74
2022/09/04 10:27:29;;;;;;;4.80;3.13;;;36.10;1.00;;;;;;5041292;28;20250;-75
2022/09/04 10:30:18;;;;;;;3.58;2.85;;;36.90;1.00;;;;;;5042094;28;20181;-74
2022/09/04 10:33:09;;;;;;;3.88;3.00;;;37.60;1.00;;;;;;5048241;28;20227;-74
2022/09/04 10:36:03;;;;;;;2.97;2.40;;;38.90;1.00;;;;;;5041669;28;20193;-75
2022/09/04 10:40:34;;;;;;;5.72;3.03;;;40.00;1.00;;;;;;5041133;28;20201;-75
2022/09/04 10:41:56;;;;;;;5.13;2.70;;;40.90;1.00;;;;;;5045024;28;20589;-74
2022/09/04 10:44:52;;;;;;;5.28;2.88;;;39.10;1.00;;;;;;5044335;28;20184;-74
2022/09/04 10:47:57;;;;;;;7.53;2.63;;;36.20;1.00;;;;;;5045876;28;20643;-74
2022/09/04 10:50:35;;;;;;;5.60;2.88;;;34.00;1.00;;;;;;5031301;28;20209;-73
2022/09/04 10:53:19;;;;;;;4.82;3.10;;;32.70;1.00;;;;;;5034220;28;20185;-74
2022/09/04 10:56:18;;;;;;;4.25;2.72;;;31.70;1.00;;;;;;5044986;28;20225;-74
2022/09/04 10:59:02;;;;;;;5.57;3.10;;;30.80;1.00;;;;;;5042775;28;20192;-74
2022/09/04 11:01:50;;;;;;;4.32;2.95;;;30.00;1.00;;;;;;5046812;28;20271;-74
2022/09/04 11:04:45;;;;;;;6.28;3.10;;;29.30;1.00;;;;;;5044568;28;20590;-74
2022/09/04 11:07:52;;;;;;;4.60;3.10;;;29.30;1.00;;;;;;5041271;28;20177;-74
2022/09/04 11:10:56;;;;;;;3.97;3.20;;;29.60;1.00;;;;;;5052473;28;20255;-74
2022/09/04 11:13:48;;;;;;;4.20;3.37;;;29.90;1.00;;;;;;5030152;28;20667;-74
2022/09/04 11:16:44;;;;;;;4.10;3.23;;;29.60;1.00;;;;;;5044489;28;20193;-74
2022/09/04 11:19:28;;;;;;;4.40;3.03;;;29.60;1.00;;;;;;5043772;28;20651;-75
2022/09/04 11:22:33;;;;;;;3.85;2.90;;;30.50;1.00;;;;;;5040010;28;20179;-75
2022/09/04 11:25:17;;;;;;;3.63;2.90;;;30.90;1.00;;;;;;5050092;28;20536;-75
2022/09/04 11:28:11;;;;;;;3.60;3.03;;;32.10;1.00;;;;;;5037893;28;20185;-74
2022/09/04 11:31:10;;;;;;;3.35;2.42;;;32.10;1.00;;;;;;5035765;28;20643;-74
2022/09/04 11:34:19;;;;;;;5.82;3.00;;;31.80;1.00;;;;;;5049309;28;20168;-74
2022/09/04 11:37:17;;;;;;;5.85;3.00;;;32.70;1.00;;;;;;5017954;28;20216;-76
2022/09/04 11:40:02;;;;;;;6.75;2.90;;;36.00;1.00;;;;;;5011020;28;20229;-75
2022/09/04 11:43:05;;;;;;;4.90;2.67;;;38.20;1.00;;;;;;5043103;28;20246;-75
2022/09/04 11:45:36;;;;;;;3.58;2.45;;;39.60;1.00;;;;;;5035492;28;20189;-75
2022/09/04 11:48:25;;;;;;;3.97;2.50;;;40.00;1.00;;;;;;5046257;28;20184;-75
2022/09/04 11:51:18;;;;;;;3.13;2.50;;;40.90;1.00;;;;;;5049750;28;20201;-76
2022/09/04 11:54:05;;;;;;;3.78;2.20;;;42.00;1.00;;;;;;5037305;28;20680;-75
2022/09/04 11:56:54;;;;;;;2.92;2.20;;;42.90;1.00;;;;;;5038100;28;20219;-75
2022/09/04 11:59:40;;;;;;;3.83;2.45;;;43.20;1.00;;;;;;5035590;28;20177;-75
2022/09/04 12:02:20;;;;;;;3.45;2.47;;;43.50;1.00;;;;;;5037198;28;20264;-75
2022/09/04 12:05:09;;;;;;;4.15;2.30;;;43.20;1.00;;;;;;5045201;28;20192;-75
2022/09/04 12:08:01;;;;;;;4.53;2.38;;;43.90;1.00;;;;;;5050391;28;20541;-77
2022/09/04 12:11:08;;;;;;;4.45;2.35;;;44.90;1.00;;;;;;5050786;28;20194;-75
2022/09/04 12:14:07;;;;;;;2.75;1.80;;;45.40;1.00;;;;;;5028236;28;20742;-75
2022/09/04 12:16:48;;;;;;;2.80;2.00;;;44.00;1.00;;;;;;5039598;28;20176;-76
2022/09/04 12:19:49;;;;;;;3.38;2.03;;;41.40;1.00;;;;;;5046470;28;20197;-75
2022/09/04 12:22:59;;;;;;;3.03;2.03;;;41.60;1.00;;;;;;5035463;28;20220;-76
2022/09/04 12:25:56;;;;;;;10.25;2.00;;;42.90;1.00;;;;;;5051555;28;20790;-75
2022/09/04 12:28:55;;;;;;;3.47;1.90;;;41.30;1.00;;;;;;5042031;28;20208;-75
2022/09/04 12:31:59;;;;;;;5.63;2.30;;;39.50;1.00;;;;;;5039939;28;20181;-74
2022/09/04 12:34:59;;;;;;;2.72;2.20;;;37.10;1.00;;;;;;5047112;28;20212;-77
2022/09/04 12:37:55;;;;;;;3.70;2.50;;;35.80;1.00;;;;;;5045730;28;20200;-75
2022/09/04 12:40:58;;;;;;;13.27;2.55;;;37.00;1.00;;;;;;5045629;28;20459;-75
2022/09/04 12:43:57;;;;;;;4.55;2.30;;;39.20;1.00;;;;;;5043225;28;20323;-76
2022/09/04 12:46:49;;;;;;;4.35;2.28;;;41.40;1.00;;;;;;5046706;28;20292;-75
2022/09/04 12:49:38;;;;;;;4.50;2.17;;;41.70;1.00;;;;;;5033970;28;20189;-76
2022/09/04 12:52:09;;;;;;;3.28;2.00;;;41.70;1.00;;;;;;5048016;28;20169;-75
2022/09/04 12:55:08;;;;;;;4.85;1.80;;;43.20;1.00;;;;;;5047022;28;20214;-75
2022/09/04 12:57:41;;;;;;;2.60;1.80;;;43.50;1.00;;;;;;5047583;28;20716;-75
2022/09/04 13:00:11;;;;;;;2.97;2.00;;;44.50;1.00;;;;;;5040938;28;20169;-75
2022/09/04 13:02:51;;;;;;;3.08;1.98;;;44.00;1.00;;;;;;5043267;28;20712;-76
2022/09/04 13:05:45;;;;;;;4.32;2.10;;;41.40;1.00;;;;;;5044567;28;20283;-75
2022/09/04 13:08:33;;;;;;;3.97;2.00;;;38.60;1.00;;;;;;5045575;28;20181;-75
2022/09/04 13:11:12;;;;;;;3.03;2.00;;;38.80;1.00;;;;;;5046320;28;20206;-76
2022/09/04 13:13:41;;;;;;;4.22;2.00;;;38.80;1.00;;;;;;5045039;28;20169;-76
2022/09/04 13:16:37;;;;;;;3.22;2.00;;;40.10;1.00;;;;;;5042627;28;20201;-76
2022/09/04 13:20:01;;;;;;;2.55;1.90;;;41.80;1.00;;;;;;5049024;28;20256;-75
2022/09/04 13:22:44;;;;;;;2.60;1.65;;;43.80;1.00;;;;;;5059032;28;20196;-75
2022/09/04 13:25:41;;;;;;;3.55;1.90;;;44.60;1.00;;;;;;5040330;28;20209;-75
2022/09/04 13:28:16;;;;;;;2.53;1.80;;;45.00;1.00;;;;;;5043394;28;20649;-75
2022/09/04 13:30:58;;;;;;;3.13;1.67;;;45.70;1.00;;;;;;5036177;28;20280;-76
2022/09/04 13:33:38;;;;;;;3.30;1.88;;;46.40;1.00;;;;;;5040881;28;20439;-75
2022/09/04 13:36:34;;;;;;;2.83;1.90;;;46.80;1.00;;;;;;5029487;28;20357;-74
2022/09/04 13:39:14;;;;;;;3.42;2.00;;;47.30;1.00;;;;;;5043778;28;20184;-74
2022/09/04 13:42:12;;;;;;;3.22;1.90;;;46.90;1.00;;;;;;5050320;28;20738;-75
2022/09/04 13:45:08;;;;;;;4.13;2.20;;;46.30;1.00;;;;;;5040208;28;20201;-75
2022/09/04 13:47:41;;;;;;;6.60;1.95;;;44.60;1.00;;;;;;5035947;28;20681;-75
2022/09/04 13:50:23;;;;;;;3.50;2.20;;;44.90;1.00;;;;;;5043051;28;20673;-75
2022/09/04 13:52:54;;;;;;;2.25;1.67;;;44.80;1.00;;;;;;5042973;28;20247;-75
2022/09/04 13:55:25;;;;;;;2.78;1.90;;;44.90;1.00;;;;;;5046328;28;20193;-75
2022/09/04 13:58:02;;;;;;;2.40;1.70;;;44.50;1.00;;;;;;5048804;28;20201;-75
2022/09/04 14:00:31;;;;;;;2.67;1.95;;;43.40;1.00;;;;;;5047040;28;20165;-74
2022/09/04 14:03:07;;;;;;;2.67;1.90;;;43.80;1.00;;;;;;5040955;28;20231;-75
2022/09/04 14:05:36;;;;;;;3.13;2.00;;;44.50;1.00;;;;;;5043527;28;20562;-74
2022/09/04 14:08:05;;;;;;;2.47;1.70;;;44.70;1.00;;;;;;5043039;28;20566;-75
2022/09/04 14:10:40;;;;;;;2.90;1.92;;;45.00;1.00;;;;;;5040530;28;20204;-74
2022/09/04 14:13:29;;;;;;;3.47;1.83;;;45.40;1.00;;;;;;5048044;28;20732;-75
2022/09/04 14:16:05;;;;;;;4.30;2.10;;;45.50;1.00;;;;;;5056111;28;20581;-75
2022/09/04 14:19:05;;;;;;;3.17;1.90;;;45.00;1.00;;;;;;5035682;28;20714;-75
2022/09/04 14:22:04;;;;;;;3.45;1.90;;;43.80;1.00;;;;;;5035040;28;20185;-75
2022/09/04 14:24:48;;;;;;;2.60;1.80;;;43.50;1.00;;;;;;5036422;28;20188;-75
2022/09/04 14:27:34;;;;;;;3.95;1.92;;;43.50;1.00;;;;;;5034874;28;21432;-75
2022/09/04 14:30:02;;;;;;;2.90;1.90;;;42.40;1.00;;;;;;5033324;28;20181;-75
2022/09/04 14:32:56;;;;;;;4.45;2.50;;;39.80;1.00;;;;;;5044728;28;20520;-75
2022/09/04 14:35:46;;;;;;;3.53;2.30;;;37.50;1.00;;;;;;5028972;28;20208;-75
2022/09/04 14:38:49;;;;;;;4.05;2.50;;;36.30;1.00;;;;;;5041030;28;20204;-75
2022/09/04 14:41:30;;;;;;;3.25;2.20;;;36.60;1.00;;;;;;5046779;28;20176;-73